Time;durP1;ratioP1;P1;durP2;ratioP2;P2;SDS_P1;SDS_P2;PMS_P1;PMS_P2;Temp;Humidity;BMP_temperature;BMP_pressure;BME280_temperature;BME280_humidity;BME280_pressure;Samples;Min_cycle;Max_cycle;Signal;HPM_P1;HPM_P2
2023/09/03 00:00:55;;;;;;;2.92;1.65;;;15.40;99.90;;;;;;5033241;28;20543;-72
2023/09/03 00:03:20;;;;;;;4.25;1.92;;;15.40;99.90;;;;;;5038714;28;20120;-73
2023/09/03 00:05:50;;;;;;;3.20;1.20;;;15.50;99.90;;;;;;5039074;28;20049;-73
2023/09/03 00:08:16;;;;;;;3.17;1.65;;;15.50;99.90;;;;;;5035764;28;20108;-74
2023/09/03 00:10:42;;;;;;;4.72;1.55;;;15.50;99.90;;;;;;5037688;28;20544;-73
2023/09/03 00:13:07;;;;;;;5.47;2.40;;;15.50;99.90;;;;;;5035795;28;20492;-74
2023/09/03 00:15:33;;;;;;;5.15;1.88;;;15.40;99.90;;;;;;5038367;28;20107;-73
2023/09/03 00:17:59;;;;;;;2.65;1.70;;;15.40;99.90;;;;;;5036195;28;20109;-73
2023/09/03 00:20:24;;;;;;;4.18;1.70;;;15.40;99.90;;;;;;5037006;28;20029;-73
2023/09/03 00:22:50;;;;;;;2.88;1.65;;;15.40;99.90;;;;;;5035714;28;20443;-73
2023/09/03 00:25:16;;;;;;;3.45;1.67;;;15.30;99.90;;;;;;5032255;28;20029;-72
2023/09/03 00:27:41;;;;;;;4.07;1.60;;;15.30;99.90;;;;;;5034978;28;20033;-73
2023/09/03 00:30:09;;;;;;;4.28;1.55;;;15.30;99.90;;;;;;5034977;28;20113;-73
2023/09/03 00:32:34;;;;;;;5.05;2.00;;;15.30;99.90;;;;;;5043282;28;20120;-74
2023/09/03 00:35:00;;;;;;;3.33;1.92;;;15.20;99.90;;;;;;5038528;28;20124;-74
2023/09/03 00:37:25;;;;;;;3.83;1.80;;;15.20;99.90;;;;;;5034930;28;20064;-73
2023/09/03 00:39:51;;;;;;;3.55;1.67;;;15.10;99.90;;;;;;5044745;28;20045;-72
2023/09/03 00:42:16;;;;;;;3.03;1.70;;;15.10;99.90;;;;;;5039362;28;20514;-73
2023/09/03 00:44:42;;;;;;;6.25;2.22;;;15.00;99.90;;;;;;5037133;28;20565;-72
2023/09/03 00:47:07;;;;;;;3.35;1.92;;;15.00;99.90;;;;;;5036852;28;20487;-72
2023/09/03 00:49:41;;;;;;;3.95;2.35;;;15.00;99.90;;;;;;5036844;28;20333;-73
2023/09/03 00:52:07;;;;;;;3.67;1.95;;;15.00;99.90;;;;;;5037231;28;20029;-72
2023/09/03 00:54:32;;;;;;;2.75;1.77;;;15.00;99.90;;;;;;5036735;28;20087;-71
2023/09/03 00:56:59;;;;;;;5.00;2.20;;;14.90;99.90;;;;;;5037791;28;20488;-71
2023/09/03 00:59:27;;;;;;;2.70;1.60;;;14.90;99.90;;;;;;5044132;28;20061;-74
2023/09/03 01:01:53;;;;;;;3.28;2.10;;;14.80;99.90;;;;;;5038439;28;20033;-74
2023/09/03 01:04:19;;;;;;;3.30;1.92;;;14.80;99.90;;;;;;5045355;28;20033;-73
2023/09/03 01:06:47;;;;;;;4.47;2.22;;;14.80;99.90;;;;;;5040078;28;20037;-73
2023/09/03 01:09:14;;;;;;;2.80;1.75;;;14.80;99.90;;;;;;5047296;28;20040;-74
2023/09/03 01:12:11;;;;;;;7.15;2.30;;;14.70;99.90;;;;;;5042135;28;20037;-72
2023/09/03 01:15:02;;;;;;;3.55;2.10;;;14.70;99.90;;;;;;5019010;28;20041;-73
2023/09/03 01:17:52;;;;;;;5.60;2.33;;;14.70;99.90;;;;;;5039410;28;20041;-73
2023/09/03 01:20:21;;;;;;;;;;;14.70;99.90;;;;;;5037969;28;20025;-73
2023/09/03 01:23:02;;;;;;;4.05;1.67;;;14.70;99.90;;;;;;5044939;28;19912;-72
2023/09/03 01:25:49;;;;;;;5.35;2.38;;;14.70;99.90;;;;;;5038172;28;20037;-74
2023/09/03 01:28:31;;;;;;;4.13;1.95;;;14.70;99.90;;;;;;5038448;28;20041;-72
2023/09/03 01:31:02;;;;;;;3.63;2.22;;;14.60;99.90;;;;;;5038367;28;20549;-73
2023/09/03 01:33:30;;;;;;;7.10;2.20;;;14.60;99.90;;;;;;5039726;28;20053;-74
2023/09/03 01:35:57;;;;;;;4.63;2.53;;;14.60;99.90;;;;;;5040773;28;20045;-73
2023/09/03 01:38:23;;;;;;;5.35;2.20;;;14.60;99.90;;;;;;5042793;28;20024;-72
2023/09/03 01:40:50;;;;;;;4.53;2.50;;;14.60;99.90;;;;;;5041599;28;20047;-73
2023/09/03 01:43:16;;;;;;;5.35;2.60;;;14.50;99.90;;;;;;5041191;28;20033;-72
2023/09/03 01:45:57;;;;;;;3.20;2.00;;;14.50;99.90;;;;;;5038614;28;20029;-73
2023/09/03 01:48:51;;;;;;;6.38;2.42;;;14.50;99.90;;;;;;5038242;28;20057;-71
2023/09/03 01:51:42;;;;;;;5.20;2.55;;;14.50;99.90;;;;;;5032869;28;20481;-73
2023/09/03 01:54:14;;;;;;;5.25;2.92;;;14.50;99.90;;;;;;5039253;28;20040;-73
2023/09/03 01:56:45;;;;;;;5.15;3.15;;;14.50;99.90;;;;;;5038684;28;20082;-73
2023/09/03 01:59:27;;;;;;;4.95;2.47;;;14.50;99.90;;;;;;5046906;28;20045;-72
2023/09/03 02:01:53;;;;;;;8.45;2.90;;;14.50;99.90;;;;;;5039009;28;20025;-74
2023/09/03 02:04:19;;;;;;;4.95;2.33;;;14.50;99.90;;;;;;5039355;28;20515;-74
2023/09/03 02:06:46;;;;;;;7.45;3.08;;;14.50;99.90;;;;;;5040981;28;20098;-73
2023/09/03 02:09:12;;;;;;;4.97;2.70;;;14.50;99.90;;;;;;5033701;28;20079;-73
2023/09/03 02:11:38;;;;;;;6.68;3.10;;;14.50;99.90;;;;;;5038462;28;20482;-73
2023/09/03 02:14:03;;;;;;;6.00;2.85;;;14.50;99.90;;;;;;5038941;28;20025;-72
2023/09/03 02:16:29;;;;;;;8.90;3.10;;;14.50;99.90;;;;;;5038034;28;20060;-73
2023/09/03 02:18:54;;;;;;;5.97;2.83;;;14.50;99.90;;;;;;5040518;28;20025;-74
2023/09/03 02:21:20;;;;;;;5.57;2.60;;;14.50;99.90;;;;;;5035601;28;20025;-72
2023/09/03 02:23:45;;;;;;;6.47;3.22;;;14.50;99.90;;;;;;5037191;28;20032;-74
2023/09/03 02:26:11;;;;;;;6.68;2.60;;;14.50;99.90;;;;;;5037428;28;20116;-71
2023/09/03 02:28:36;;;;;;;6.47;2.97;;;14.50;99.90;;;;;;5039465;28;20409;-72
2023/09/03 02:31:02;;;;;;;4.38;2.97;;;14.50;99.90;;;;;;5034766;28;20401;-73
2023/09/03 02:33:29;;;;;;;5.90;3.03;;;14.50;99.90;;;;;;5036938;28;20032;-72
2023/09/03 02:35:54;;;;;;;6.28;3.30;;;14.50;99.90;;;;;;5039733;28;20620;-74
2023/09/03 02:38:20;;;;;;;4.60;2.65;;;14.50;99.90;;;;;;5035506;28;20055;-73
2023/09/03 02:40:46;;;;;;;7.47;3.65;;;14.50;99.90;;;;;;5035664;28;20037;-73
2023/09/03 02:43:12;;;;;;;7.22;3.28;;;14.60;99.90;;;;;;5037677;28;20033;-73
2023/09/03 02:45:38;;;;;;;6.55;3.10;;;14.60;99.90;;;;;;5039048;28;20362;-73
2023/09/03 02:48:04;;;;;;;5.60;2.92;;;14.60;99.90;;;;;;5035677;28;20049;-72
2023/09/03 02:50:30;;;;;;;5.95;2.92;;;14.50;99.90;;;;;;5037706;28;20045;-73
2023/09/03 02:52:55;;;;;;;5.53;2.78;;;14.60;99.90;;;;;;5039156;28;20033;-73
2023/09/03 02:55:21;;;;;;;7.10;3.08;;;14.60;99.90;;;;;;5036835;28;20044;-72
2023/09/03 02:57:46;;;;;;;5.10;2.72;;;14.60;99.90;;;;;;5042213;28;20033;-73
2023/09/03 03:00:12;;;;;;;6.05;3.03;;;14.50;99.90;;;;;;5040959;28;20057;-74
2023/09/03 03:02:38;;;;;;;5.55;2.92;;;14.50;99.90;;;;;;5079885;22;20041;-68
2023/09/03 03:05:04;;;;;;;5.88;3.17;;;14.50;99.90;;;;;;5041793;28;20116;-70
2023/09/03 03:07:30;;;;;;;6.28;3.28;;;14.50;99.90;;;;;;5046429;28;20029;-67
2023/09/03 03:09:55;;;;;;;6.57;3.10;;;14.50;99.90;;;;;;5038635;28;20033;-67
2023/09/03 03:12:21;;;;;;;4.90;2.80;;;14.40;99.90;;;;;;5039507;28;20033;-68
2023/09/03 03:14:48;;;;;;;4.25;2.53;;;14.40;99.90;;;;;;5048264;28;20162;-71
2023/09/03 03:17:14;;;;;;;6.60;2.97;;;14.40;99.90;;;;;;5046836;28;20049;-69
2023/09/03 03:19:39;;;;;;;7.45;3.20;;;14.40;99.90;;;;;;5048698;28;20033;-67
2023/09/03 03:22:05;;;;;;;5.28;2.72;;;14.40;99.90;;;;;;5047594;28;20037;-69
2023/09/03 03:24:30;;;;;;;5.55;2.92;;;14.40;99.90;;;;;;5046663;28;20025;-68
2023/09/03 03:26:56;;;;;;;5.68;3.10;;;14.30;99.90;;;;;;5046543;28;20086;-68
2023/09/03 03:29:21;;;;;;;6.82;3.00;;;14.30;99.90;;;;;;5047524;28;20028;-68
2023/09/03 03:31:47;;;;;;;5.88;3.13;;;14.20;99.90;;;;;;5047875;28;20496;-66
2023/09/03 03:34:13;;;;;;;5.80;3.10;;;14.10;99.90;;;;;;5047848;28;20028;-68
2023/09/03 03:36:38;;;;;;;6.68;2.83;;;14.10;99.90;;;;;;5047947;28;20040;-68
2023/09/03 03:39:04;;;;;;;7.32;3.30;;;14.10;99.90;;;;;;5047598;28;20455;-70
2023/09/03 03:41:30;;;;;;;8.60;3.25;;;14.10;99.90;;;;;;5046894;28;20496;-68
2023/09/03 03:43:56;;;;;;;5.95;3.30;;;14.00;99.90;;;;;;5047706;28;20053;-67
2023/09/03 03:46:21;;;;;;;6.93;2.88;;;14.00;99.90;;;;;;5047331;28;20033;-68
2023/09/03 03:48:48;;;;;;;7.88;2.88;;;14.00;99.90;;;;;;5047569;28;20045;-69
2023/09/03 03:51:14;;;;;;;7.07;3.00;;;13.90;99.90;;;;;;5043998;28;20052;-69
2023/09/03 03:53:40;;;;;;;4.93;2.65;;;13.90;99.90;;;;;;5047979;28;20056;-66
2023/09/03 03:56:08;;;;;;;8.05;3.30;;;13.90;99.90;;;;;;5046817;28;20049;-70
2023/09/03 03:58:36;;;;;;;5.90;3.00;;;13.90;99.90;;;;;;5047445;28;20041;-68
2023/09/03 04:01:11;;;;;;;5.95;3.08;;;13.90;99.90;;;;;;5047015;28;20064;-67
2023/09/03 04:03:37;;;;;;;5.70;3.15;;;13.90;99.90;;;;;;5047474;28;20741;-69
2023/09/03 04:06:03;;;;;;;4.60;2.40;;;13.90;99.90;;;;;;5045695;28;20056;-66
2023/09/03 04:08:31;;;;;;;5.88;3.05;;;13.90;99.90;;;;;;5045800;28;20480;-69
2023/09/03 04:10:58;;;;;;;7.57;3.08;;;13.90;99.90;;;;;;5047253;28;20037;-69
2023/09/03 04:13:24;;;;;;;7.43;2.92;;;13.90;99.90;;;;;;5047084;28;20044;-70
2023/09/03 04:15:50;;;;;;;6.43;3.20;;;13.90;99.90;;;;;;5047041;28;20090;-70
2023/09/03 04:18:15;;;;;;;5.28;3.30;;;13.80;99.90;;;;;;5047708;28;20044;-68
2023/09/03 04:20:41;;;;;;;5.45;2.92;;;13.80;99.90;;;;;;5047455;28;20029;-69
2023/09/03 04:23:06;;;;;;;8.07;3.72;;;13.90;99.90;;;;;;5046883;28;20048;-69
2023/09/03 04:25:32;;;;;;;4.50;2.60;;;13.90;99.90;;;;;;5047222;28;20048;-68
2023/09/03 04:27:57;;;;;;;4.80;3.08;;;13.80;99.90;;;;;;5045444;28;20041;-68
2023/09/03 04:30:23;;;;;;;5.00;2.70;;;13.80;99.90;;;;;;5047005;28;20412;-68
2023/09/03 04:32:48;;;;;;;6.75;3.22;;;13.90;99.90;;;;;;5047002;28;20029;-66
2023/09/03 04:35:14;;;;;;;5.82;3.05;;;13.80;99.90;;;;;;5050607;28;20048;-66
2023/09/03 04:37:40;;;;;;;6.03;3.08;;;13.80;99.90;;;;;;5051814;28;20037;-70
2023/09/03 04:40:08;;;;;;;6.25;3.05;;;13.80;99.90;;;;;;5052039;28;20472;-71
2023/09/03 04:42:33;;;;;;;7.78;3.25;;;13.90;99.90;;;;;;5051294;28;20396;-68
2023/09/03 04:44:59;;;;;;;7.63;3.10;;;13.90;99.90;;;;;;5050867;28;20033;-70
2023/09/03 04:47:24;;;;;;;5.45;3.22;;;13.90;99.90;;;;;;5050929;28;20374;-70
2023/09/03 04:49:50;;;;;;;6.43;2.40;;;13.90;99.90;;;;;;5051023;28;20037;-71
2023/09/03 04:52:15;;;;;;;5.70;2.80;;;13.90;99.90;;;;;;5050638;28;20044;-69
2023/09/03 04:54:41;;;;;;;6.80;3.53;;;13.90;99.90;;;;;;5051211;28;20033;-70
2023/09/03 04:57:07;;;;;;;6.65;3.28;;;13.90;99.90;;;;;;5049275;28;20138;-69
2023/09/03 04:59:33;;;;;;;5.45;3.10;;;13.90;99.90;;;;;;5053423;28;20971;-68
2023/09/03 05:01:58;;;;;;;5.55;3.08;;;13.90;99.90;;;;;;5050488;28;20086;-69
2023/09/03 05:04:24;;;;;;;4.88;2.55;;;13.90;99.90;;;;;;5049132;28;20036;-69
2023/09/03 05:06:49;;;;;;;10.02;3.88;;;13.90;99.90;;;;;;5050411;28;20029;-69
2023/09/03 05:09:15;;;;;;;4.60;2.70;;;13.90;99.90;;;;;;5050630;28;20033;-69
2023/09/03 05:11:42;;;;;;;5.30;2.63;;;13.90;99.90;;;;;;5050895;28;20127;-68
2023/09/03 05:14:08;;;;;;;5.88;3.25;;;13.90;99.90;;;;;;5050587;28;20032;-69
2023/09/03 05:16:34;;;;;;;5.80;3.38;;;13.90;99.90;;;;;;5050008;28;20100;-69
2023/09/03 05:19:04;;;;;;;4.95;2.95;;;13.90;99.90;;;;;;5048898;28;20369;-70
2023/09/03 05:21:31;;;;;;;5.88;3.28;;;13.90;99.90;;;;;;5049688;28;20506;-69
2023/09/03 05:23:57;;;;;;;8.23;3.45;;;13.80;99.90;;;;;;5048792;28;20029;-71
2023/09/03 05:26:22;;;;;;;6.20;3.50;;;13.80;99.90;;;;;;5050040;28;20449;-69
2023/09/03 05:28:48;;;;;;;7.10;2.70;;;13.80;99.90;;;;;;5050199;28;20044;-69
2023/09/03 05:31:14;;;;;;;4.90;2.78;;;13.80;99.90;;;;;;5049987;28;20540;-70
2023/09/03 05:33:39;;;;;;;7.13;3.83;;;13.90;99.90;;;;;;5050458;28;20137;-68
2023/09/03 05:36:05;;;;;;;6.40;3.10;;;13.90;99.90;;;;;;5048249;28;20047;-67
2023/09/03 05:38:31;;;;;;;6.25;3.55;;;13.90;99.90;;;;;;5050426;28;20045;-70
2023/09/03 05:40:59;;;;;;;6.07;2.80;;;14.00;99.90;;;;;;5049996;28;20485;-71
2023/09/03 05:43:25;;;;;;;9.07;4.05;;;14.00;99.90;;;;;;5049431;28;20416;-70
2023/09/03 05:45:51;;;;;;;9.07;3.78;;;14.00;99.90;;;;;;5049828;28;20609;-69
2023/09/03 05:48:16;;;;;;;9.55;3.22;;;14.10;99.90;;;;;;5050109;28;20087;-69
2023/09/03 05:50:42;;;;;;;6.50;3.33;;;14.10;99.90;;;;;;5048845;28;20064;-69
2023/09/03 05:53:07;;;;;;;6.63;2.80;;;14.10;99.90;;;;;;5049511;28;20033;-71
2023/09/03 05:55:37;;;;;;;6.57;3.13;;;14.10;99.90;;;;;;5049741;28;20049;-69
2023/09/03 05:58:03;;;;;;;5.97;3.33;;;14.20;99.90;;;;;;5051735;28;20040;-68
2023/09/03 06:00:28;;;;;;;6.60;3.22;;;14.20;99.90;;;;;;5049491;28;20040;-70
2023/09/03 06:02:54;;;;;;;9.00;3.75;;;14.30;99.90;;;;;;5049170;28;20041;-69
2023/09/03 06:05:20;;;;;;;7.38;3.78;;;14.30;99.90;;;;;;5049543;28;20135;-70
2023/09/03 06:07:45;;;;;;;6.38;3.25;;;14.40;99.90;;;;;;5049758;28;20041;-69
2023/09/03 06:10:11;;;;;;;8.88;3.65;;;14.50;99.90;;;;;;5049708;28;20033;-68
2023/09/03 06:12:36;;;;;;;5.03;3.20;;;14.50;99.90;;;;;;5049048;28;20613;-69
2023/09/03 06:15:02;;;;;;;6.63;3.42;;;14.60;99.90;;;;;;5047736;28;20499;-69
2023/09/03 06:17:28;;;;;;;6.28;3.63;;;14.60;99.90;;;;;;5047437;28;20056;-68
2023/09/03 06:19:53;;;;;;;10.32;3.92;;;14.70;99.90;;;;;;5049029;28;20098;-68
2023/09/03 06:22:19;;;;;;;5.13;3.45;;;14.80;99.90;;;;;;5048768;28;20078;-72
2023/09/03 06:24:44;;;;;;;6.13;3.00;;;14.80;99.90;;;;;;5049913;28;20143;-69
2023/09/03 06:27:10;;;;;;;5.93;3.15;;;14.90;99.90;;;;;;5049003;28;20498;-69
2023/09/03 06:29:36;;;;;;;8.32;3.55;;;15.00;99.90;;;;;;5049071;28;20119;-69
2023/09/03 06:32:01;;;;;;;7.45;3.70;;;15.10;99.90;;;;;;5048530;28;20040;-69
2023/09/03 06:34:27;;;;;;;6.90;3.60;;;15.10;99.90;;;;;;5048584;28;20033;-69
2023/09/03 06:36:52;;;;;;;9.63;3.72;;;15.20;99.90;;;;;;5049049;28;20274;-69
2023/09/03 06:39:18;;;;;;;6.25;3.60;;;15.30;99.90;;;;;;5051062;28;20048;-70
2023/09/03 06:41:43;;;;;;;6.07;3.67;;;15.40;99.90;;;;;;5049281;28;20040;-69
2023/09/03 06:44:09;;;;;;;6.50;3.13;;;15.50;99.90;;;;;;5049189;28;20029;-70
2023/09/03 06:46:35;;;;;;;6.40;3.50;;;15.60;99.90;;;;;;5048394;28;20033;-70
2023/09/03 06:49:00;;;;;;;6.93;3.80;;;15.70;99.90;;;;;;5048557;28;20048;-70
2023/09/03 06:51:26;;;;;;;7.70;3.92;;;15.70;99.90;;;;;;5048525;28;20029;-69
2023/09/03 06:53:51;;;;;;;8.38;3.80;;;15.90;99.90;;;;;;5048759;28;20091;-67
2023/09/03 06:56:17;;;;;;;6.40;3.60;;;15.90;99.90;;;;;;5047735;28;20511;-69
2023/09/03 06:58:43;;;;;;;5.20;2.97;;;16.10;99.90;;;;;;5047875;28;20533;-69
2023/09/03 07:01:08;;;;;;;5.30;3.03;;;16.00;99.90;;;;;;5048584;28;20060;-68
2023/09/03 07:03:34;;;;;;;6.95;3.50;;;16.10;99.90;;;;;;5047994;28;20041;-67
2023/09/03 07:05:59;;;;;;;6.35;3.55;;;16.10;99.90;;;;;;5048436;28;20057;-69
2023/09/03 07:08:25;;;;;;;8.20;3.83;;;16.20;99.90;;;;;;5048446;28;20059;-69
2023/09/03 07:10:51;;;;;;;6.50;3.67;;;16.20;99.90;;;;;;5048508;28;20400;-68
2023/09/03 07:13:16;;;;;;;7.10;3.45;;;16.20;99.90;;;;;;5048133;28;20116;-70
2023/09/03 07:15:42;;;;;;;7.15;3.38;;;16.30;99.90;;;;;;5048698;28;20056;-71
2023/09/03 07:18:07;;;;;;;7.35;3.55;;;16.40;99.90;;;;;;5046349;28;20445;-70
2023/09/03 07:20:33;;;;;;;8.75;3.20;;;16.40;99.90;;;;;;5046682;28;20083;-69
2023/09/03 07:22:58;;;;;;;9.15;3.13;;;16.50;99.90;;;;;;5041337;28;20033;-69
2023/09/03 07:25:25;;;;;;;7.90;3.63;;;16.60;99.90;;;;;;5047412;28;20549;-69
2023/09/03 07:27:50;;;;;;;6.60;3.35;;;16.70;99.90;;;;;;5046980;28;20037;-68
2023/09/03 07:30:16;;;;;;;7.25;3.47;;;16.70;99.90;;;;;;5048879;28;20057;-69
2023/09/03 07:32:41;;;;;;;8.23;3.38;;;16.60;99.90;;;;;;5050280;28;20059;-68
2023/09/03 07:35:08;;;;;;;6.95;3.60;;;16.60;99.90;;;;;;5048395;28;20121;-70
2023/09/03 07:37:33;;;;;;;5.47;2.92;;;16.60;99.90;;;;;;5043327;28;20040;-69
2023/09/03 07:39:59;;;;;;;6.47;3.40;;;16.70;99.90;;;;;;5046901;28;20048;-69
2023/09/03 07:42:25;;;;;;;5.30;3.13;;;16.80;99.90;;;;;;5046661;28;20040;-69
2023/09/03 07:44:50;;;;;;;6.47;3.72;;;16.80;99.90;;;;;;5046176;28;20068;-69
2023/09/03 07:47:16;;;;;;;6.85;3.83;;;16.80;99.90;;;;;;5045940;28;20403;-69
2023/09/03 07:49:42;;;;;;;5.72;3.35;;;16.80;99.90;;;;;;5042684;28;20068;-71
2023/09/03 07:52:08;;;;;;;6.68;3.50;;;16.90;99.90;;;;;;5048416;28;21262;-71
2023/09/03 07:54:33;;;;;;;6.30;3.40;;;17.00;99.90;;;;;;5047452;28;20112;-69
2023/09/03 07:56:59;;;;;;;7.30;4.07;;;17.00;99.90;;;;;;5042185;28;20029;-72
2023/09/03 07:59:25;;;;;;;5.85;3.00;;;17.20;99.90;;;;;;5052717;28;20107;-68
2023/09/03 08:01:50;;;;;;;5.80;3.58;;;17.20;99.90;;;;;;5047721;28;20485;-70
2023/09/03 08:04:16;;;;;;;6.07;3.60;;;17.40;99.90;;;;;;5047486;28;20144;-69
2023/09/03 08:06:41;;;;;;;8.27;3.47;;;17.40;99.90;;;;;;5047967;28;20033;-69
2023/09/03 08:09:07;;;;;;;5.53;2.85;;;17.50;99.90;;;;;;5051031;28;20556;-69
2023/09/03 08:11:32;;;;;;;5.55;2.90;;;17.50;99.90;;;;;;5047396;28;20033;-68
2023/09/03 08:13:59;;;;;;;6.38;3.38;;;17.50;99.90;;;;;;5046315;28;20041;-69
2023/09/03 08:16:26;;;;;;;12.02;3.45;;;17.60;99.90;;;;;;5047725;28;20412;-70
2023/09/03 08:18:51;;;;;;;4.75;3.08;;;17.60;99.90;;;;;;5047018;28;20029;-71
2023/09/03 08:21:17;;;;;;;8.95;3.40;;;17.70;99.90;;;;;;5047731;28;20087;-69
2023/09/03 08:23:43;;;;;;;9.27;3.00;;;17.80;99.90;;;;;;5048232;28;20064;-69
2023/09/03 08:26:08;;;;;;;6.35;2.88;;;17.80;99.90;;;;;;5051834;28;20041;-69
2023/09/03 08:28:34;;;;;;;8.07;3.05;;;17.90;99.90;;;;;;5047790;28;20044;-70
2023/09/03 08:31:00;;;;;;;5.82;2.55;;;17.90;99.90;;;;;;5048011;28;20044;-68
2023/09/03 08:33:25;;;;;;;6.97;3.05;;;18.00;99.90;;;;;;5047397;28;20060;-68
2023/09/03 08:35:51;;;;;;;4.72;2.67;;;18.10;99.90;;;;;;5044233;28;20068;-70
2023/09/03 08:38:16;;;;;;;7.28;2.75;;;18.10;99.90;;;;;;5044196;28;20102;-72
2023/09/03 08:40:43;;;;;;;5.05;2.42;;;18.20;99.90;;;;;;5047117;28;20045;-72
2023/09/03 08:43:11;;;;;;;4.80;2.08;;;18.20;99.90;;;;;;5046535;28;20072;-71
2023/09/03 08:45:44;;;;;;;5.15;2.83;;;18.40;99.90;;;;;;5047658;28;20037;-69
2023/09/03 08:48:10;;;;;;;8.35;3.17;;;18.50;99.90;;;;;;5047033;28;20097;-69
2023/09/03 08:50:36;;;;;;;6.53;3.33;;;18.60;99.90;;;;;;5047538;28;20117;-68
2023/09/03 08:53:02;;;;;;;4.75;2.83;;;18.80;99.90;;;;;;5045620;28;20176;-68
2023/09/03 08:55:29;;;;;;;8.90;2.92;;;18.80;99.90;;;;;;5046940;28;20086;-67
2023/09/03 08:57:56;;;;;;;4.95;2.22;;;18.90;99.90;;;;;;5048011;28;20033;-68
2023/09/03 09:00:22;;;;;;;5.50;2.75;;;19.00;99.90;;;;;;5047575;28;20033;-69
2023/09/03 09:02:49;;;;;;;6.95;2.70;;;19.00;99.90;;;;;;5251441;22;20060;-73
2023/09/03 09:05:15;;;;;;;5.95;2.30;;;19.10;99.90;;;;;;5042373;28;20032;-71
2023/09/03 09:07:41;;;;;;;2.83;1.63;;;19.10;99.90;;;;;;5042739;28;20044;-71
2023/09/03 09:10:10;;;;;;;8.88;2.17;;;19.20;99.90;;;;;;5043402;28;20029;-71
2023/09/03 09:13:10;;;;;;;11.95;2.28;;;19.40;99.90;;;;;;5046673;28;20948;-71
2023/09/03 09:15:39;;;;;;;8.02;1.70;;;19.60;99.90;;;;;;5048316;28;20040;-71
2023/09/03 09:18:08;;;;;;;3.88;2.15;;;19.70;99.90;;;;;;5046095;28;20044;-73
2023/09/03 09:20:39;;;;;;;6.50;1.73;;;19.80;99.90;;;;;;5046877;28;20041;-71
2023/09/03 09:23:07;;;;;;;2.22;1.42;;;19.90;99.90;;;;;;5050007;28;20029;-70
2023/09/03 09:25:33;;;;;;;5.40;1.80;;;19.90;99.90;;;;;;5049708;28;20076;-71
2023/09/03 09:28:12;;;;;;;5.68;2.78;;;20.10;99.90;;;;;;5052219;28;20029;-72
2023/09/03 09:30:53;;;;;;;5.03;1.65;;;20.10;99.90;;;;;;5054237;28;20159;-72
2023/09/03 09:33:18;;;;;;;7.18;1.92;;;20.20;99.90;;;;;;5049481;28;20060;-71
2023/09/03 09:35:44;;;;;;;2.05;1.02;;;20.30;99.90;;;;;;5050332;28;20074;-73
2023/09/03 09:38:09;;;;;;;1.83;0.88;;;20.40;99.90;;;;;;5049821;28;20029;-72
2023/09/03 09:40:36;;;;;;;2.35;1.30;;;20.50;99.90;;;;;;5050515;28;20029;-71
2023/09/03 09:43:06;;;;;;;1.50;1.00;;;20.70;99.90;;;;;;5050701;28;20405;-73
2023/09/03 09:45:33;;;;;;;2.50;0.77;;;20.70;99.90;;;;;;5050274;28;20037;-72
2023/09/03 09:48:06;;;;;;;2.03;0.60;;;20.70;99.90;;;;;;5053583;28;20032;-71
2023/09/03 09:50:36;;;;;;;1.33;0.70;;;20.70;99.90;;;;;;5052886;28;20037;-72
2023/09/03 09:53:18;;;;;;;3.67;1.25;;;20.70;99.90;;;;;;5060287;28;20029;-73
2023/09/03 09:55:44;;;;;;;1.60;0.88;;;20.70;99.90;;;;;;5052971;28;20048;-72
2023/09/03 09:58:12;;;;;;;1.58;0.65;;;20.80;99.90;;;;;;5053560;28;20051;-71
2023/09/03 10:00:41;;;;;;;2.15;0.77;;;20.90;99.90;;;;;;5060118;28;20381;-70
2023/09/03 10:03:10;;;;;;;5.85;0.73;;;21.10;99.90;;;;;;5049074;28;20041;-71
2023/09/03 10:05:37;;;;;;;3.50;1.45;;;21.20;99.90;;;;;;5049811;28;20021;-71
2023/09/03 10:08:03;;;;;;;2.17;0.80;;;21.40;99.90;;;;;;5049561;28;20036;-70
2023/09/03 10:10:30;;;;;;;1.50;0.70;;;21.40;99.90;;;;;;5047586;28;20040;-73
2023/09/03 10:12:55;;;;;;;2.80;0.77;;;21.50;99.90;;;;;;5053062;28;20434;-74
2023/09/03 10:15:21;;;;;;;3.35;1.42;;;21.40;99.90;;;;;;5049302;28;20551;-72
2023/09/03 10:17:51;;;;;;;1.63;0.88;;;21.40;99.90;;;;;;5049448;28;20766;-72
2023/09/03 10:20:19;;;;;;;2.35;1.08;;;21.40;99.90;;;;;;5052629;28;20036;-72
2023/09/03 10:22:48;;;;;;;1.60;0.50;;;21.30;99.90;;;;;;5047888;28;20029;-72
2023/09/03 10:25:18;;;;;;;2.08;0.52;;;21.30;99.90;;;;;;5049155;28;20383;-71
2023/09/03 10:27:47;;;;;;;;;;;21.30;99.90;;;;;;5048151;28;20120;-72
2023/09/03 10:30:16;;;;;;;0.52;0.20;;;21.30;99.90;;;;;;5049747;28;19916;-72
2023/09/03 10:32:42;;;;;;;0.75;0.20;;;21.30;99.90;;;;;;5048734;28;20040;-76
2023/09/03 10:35:09;;;;;;;1.65;0.30;;;21.30;99.90;;;;;;5046613;28;20033;-73
2023/09/03 10:37:37;;;;;;;2.40;0.40;;;21.30;99.90;;;;;;5047499;28;20051;-73
2023/09/03 10:40:29;;;;;;;3.25;0.52;;;21.40;99.90;;;;;;5045851;28;20021;-72
2023/09/03 10:43:14;;;;;;;1.10;0.38;;;21.40;99.90;;;;;;5051031;28;20464;-73
2023/09/03 10:46:00;;;;;;;1.27;0.60;;;21.50;99.90;;;;;;5052336;28;20052;-71
2023/09/03 10:48:26;;;;;;;1.30;0.75;;;21.50;99.90;;;;;;5050892;28;20041;-72
2023/09/03 10:50:52;;;;;;;1.65;0.30;;;21.40;99.90;;;;;;5051062;28;20059;-71
2023/09/03 10:53:43;;;;;;;0.50;0.28;;;21.50;99.90;;;;;;5055864;28;20036;-72
2023/09/03 10:56:11;;;;;;;2.42;0.47;;;21.40;99.90;;;;;;5054620;28;20037;-71
2023/09/03 10:58:54;;;;;;;1.83;0.50;;;21.50;99.90;;;;;;5054640;28;20109;-71
2023/09/03 11:01:31;;;;;;;2.13;0.20;;;21.50;99.90;;;;;;5055437;28;20045;-71
2023/09/03 11:04:03;;;;;;;1.20;0.40;;;21.50;99.90;;;;;;5055842;28;20037;-71
2023/09/03 11:06:33;;;;;;;1.40;0.40;;;21.50;99.90;;;;;;5047911;28;20029;-72
2023/09/03 11:08:59;;;;;;;1.25;0.43;;;21.50;99.90;;;;;;5048420;28;20561;-72
2023/09/03 11:11:28;;;;;;;1.48;0.52;;;21.60;99.90;;;;;;5046462;28;20076;-71
2023/09/03 11:13:55;;;;;;;0.80;0.32;;;21.70;99.90;;;;;;5055894;28;20047;-71
2023/09/03 11:16:31;;;;;;;0.52;0.22;;;21.70;99.90;;;;;;5047973;28;20041;-71
2023/09/03 11:18:57;;;;;;;1.35;0.55;;;21.80;99.90;;;;;;5047804;28;20044;-71
2023/09/03 11:21:27;;;;;;;1.88;0.43;;;21.90;99.90;;;;;;5051069;28;20025;-71
2023/09/03 11:24:03;;;;;;;0.60;0.22;;;21.90;99.90;;;;;;5048298;28;20029;-72
2023/09/03 11:26:29;;;;;;;1.15;0.20;;;22.00;99.90;;;;;;5050484;28;20052;-71
2023/09/03 11:28:55;;;;;;;0.47;0.17;;;22.20;99.90;;;;;;5051105;28;20040;-72
2023/09/03 11:31:22;;;;;;;0.40;0.10;;;22.20;99.90;;;;;;5047780;28;20111;-71
2023/09/03 11:33:48;;;;;;;0.30;0.15;;;22.20;99.90;;;;;;5050790;28;20036;-71
2023/09/03 11:36:14;;;;;;;0.50;0.20;;;22.20;99.90;;;;;;5047560;28;20037;-73
2023/09/03 11:38:39;;;;;;;0.47;0.28;;;22.20;99.90;;;;;;5047729;28;20041;-71
2023/09/03 11:41:06;;;;;;;1.50;0.52;;;22.20;99.90;;;;;;5047729;28;20326;-71
2023/09/03 11:43:36;;;;;;;0.30;0.10;;;22.30;99.90;;;;;;5049470;28;20060;-71
2023/09/03 11:46:11;;;;;;;0.65;0.17;;;22.30;99.90;;;;;;5049239;28;20033;-73
2023/09/03 11:48:38;;;;;;;1.42;0.13;;;22.40;99.90;;;;;;5048675;28;20029;-74
2023/09/03 11:51:04;;;;;;;0.55;0.13;;;22.30;99.90;;;;;;5056832;28;20039;-71
2023/09/03 11:53:41;;;;;;;0.25;0.10;;;22.30;99.90;;;;;;5053695;28;20037;-72
2023/09/03 11:56:13;;;;;;;0.75;0.28;;;22.30;99.90;;;;;;5048147;28;20111;-72
2023/09/03 11:58:39;;;;;;;0.52;0.10;;;22.30;99.90;;;;;;5057772;28;20056;-73
2023/09/03 12:01:06;;;;;;;0.50;0.10;;;22.20;99.90;;;;;;5057056;28;20090;-72
2023/09/03 12:03:31;;;;;;;0.85;0.20;;;22.20;99.90;;;;;;5054682;28;20080;-72
2023/09/03 12:05:57;;;;;;;0.75;0.13;;;22.20;99.90;;;;;;5057076;28;20499;-72
2023/09/03 12:08:23;;;;;;;1.95;0.47;;;22.30;99.90;;;;;;5057270;28;20040;-71
2023/09/03 12:10:49;;;;;;;0.50;0.20;;;22.50;99.90;;;;;;5048306;28;20040;-71
2023/09/03 12:13:35;;;;;;;0.13;0.10;;;22.50;99.90;;;;;;5048797;28;20033;-72
2023/09/03 12:16:03;;;;;;;1.45;0.38;;;22.50;99.90;;;;;;5050478;28;20123;-73
2023/09/03 12:18:29;;;;;;;1.45;0.60;;;22.50;99.90;;;;;;5048044;28;20446;-73
2023/09/03 12:20:54;;;;;;;0.20;0.10;;;22.40;99.90;;;;;;5045978;28;20032;-71
2023/09/03 12:23:20;;;;;;;1.50;0.43;;;22.40;99.90;;;;;;5044571;28;20032;-71
2023/09/03 12:25:46;;;;;;;2.75;0.25;;;22.30;99.90;;;;;;5051388;28;20079;-70
2023/09/03 12:28:12;;;;;;;0.55;0.30;;;22.40;99.90;;;;;;5045759;28;20029;-72
2023/09/03 12:30:55;;;;;;;0.80;0.30;;;22.40;99.90;;;;;;5048169;28;20110;-71
2023/09/03 12:33:26;;;;;;;0.30;0.20;;;22.50;99.90;;;;;;5050364;28;20057;-72
2023/09/03 12:36:04;;;;;;;;;;;22.50;99.90;;;;;;5045587;28;20033;-71
2023/09/03 12:38:29;;;;;;;0.22;0.20;;;22.60;99.90;;;;;;5047172;28;19966;-71
2023/09/03 12:40:55;;;;;;;0.45;0.10;;;22.60;99.90;;;;;;5045546;28;20033;-70
2023/09/03 12:43:23;;;;;;;1.10;0.30;;;22.60;99.90;;;;;;5049363;28;20128;-71
2023/09/03 12:45:49;;;;;;;0.70;0.20;;;22.60;99.90;;;;;;5046796;28;20033;-72
2023/09/03 12:48:14;;;;;;;0.77;0.30;;;22.50;99.90;;;;;;5045207;28;20037;-73
2023/09/03 12:50:40;;;;;;;1.13;0.40;;;22.50;99.90;;;;;;5046887;28;20032;-74